sensor_id;sensor_type;location;lat;lon;timestamp;temperature;humidity
13682;DHT22;6913;49.892;7.936;2022-10-16T00:02:19;14.70;99.90
13682;DHT22;6913;49.892;7.936;2022-10-16T00:04:46;14.70;99.90
13682;DHT22;6913;49.892;7.936;2022-10-16T00:07:13;14.70;99.90
13682;DHT22;6913;49.892;7.936;2022-10-16T00:09:41;14.70;99.90
13682;DHT22;6913;49.892;7.936;2022-10-16T00:12:08;14.60;99.90
13682;DHT22;6913;49.892;7.936;2022-10-16T00:14:35;14.70;99.90
13682;DHT22;6913;49.892;7.936;2022-10-16T00:17:01;14.70;99.90
13682;DHT22;6913;49.892;7.936;2022-10-16T00:19:28;14.70;99.90
13682;DHT22;6913;49.892;7.936;2022-10-16T00:21:55;14.70;99.90
13682;DHT22;6913;49.892;7.936;2022-10-16T00:24:22;14.70;99.90
13682;DHT22;6913;49.892;7.936;2022-10-16T00:26:50;14.60;99.90
13682;DHT22;6913;49.892;7.936;2022-10-16T00:29:17;14.60;99.90
13682;DHT22;6913;49.892;7.936;2022-10-16T00:31:44;14.90;99.90
13682;DHT22;6913;49.892;7.936;2022-10-16T00:34:11;14.60;99.90
13682;DHT22;6913;49.892;7.936;2022-10-16T00:36:37;14.40;99.90
13682;DHT22;6913;49.892;7.936;2022-10-16T00:39:04;14.30;99.90
13682;DHT22;6913;49.892;7.936;2022-10-16T00:41:32;14.40;99.90
13682;DHT22;6913;49.892;7.936;2022-10-16T00:44:01;14.50;99.90
13682;DHT22;6913;49.892;7.936;2022-10-16T00:46:31;14.50;99.90
13682;DHT22;6913;49.892;7.936;2022-10-16T00:49:04;14.50;99.90
13682;DHT22;6913;49.892;7.936;2022-10-16T00:51:33;14.60;99.90
13682;DHT22;6913;49.892;7.936;2022-10-16T00:54:02;14.60;99.90
13682;DHT22;6913;49.892;7.936;2022-10-16T00:56:30;14.80;99.90
13682;DHT22;6913;49.892;7.936;2022-10-16T00:59:02;14.50;99.90
13682;DHT22;6913;49.892;7.936;2022-10-16T01:01:30;14.40;99.90
13682;DHT22;6913;49.892;7.936;2022-10-16T01:03:57;14.50;99.90
13682;DHT22;6913;49.892;7.936;2022-10-16T01:06:28;14.50;99.90
13682;DHT22;6913;49.892;7.936;2022-10-16T01:09:10;14.60;99.90
13682;DHT22;6913;49.892;7.936;2022-10-16T01:11:44;14.60;99.90
13682;DHT22;6913;49.892;7.936;2022-10-16T01:14:21;14.60;99.90
13682;DHT22;6913;49.892;7.936;2022-10-16T01:16:53;14.40;99.90
13682;DHT22;6913;49.892;7.936;2022-10-16T01:19:31;14.40;99.90
13682;DHT22;6913;49.892;7.936;2022-10-16T01:22:02;14.50;99.90
13682;DHT22;6913;49.892;7.936;2022-10-16T01:24:35;14.50;99.90
13682;DHT22;6913;49.892;7.936;2022-10-16T01:27:10;14.40;99.90
13682;DHT22;6913;49.892;7.936;2022-10-16T01:29:40;14.30;99.90
13682;DHT22;6913;49.892;7.936;2022-10-16T01:32:14;14.40;99.90
13682;DHT22;6913;49.892;7.936;2022-10-16T01:34:47;14.40;99.90
13682;DHT22;6913;49.892;7.936;2022-10-16T01:37:16;14.40;99.90
13682;DHT22;6913;49.892;7.936;2022-10-16T01:39:46;14.40;99.90
13682;DHT22;6913;49.892;7.936;2022-10-16T01:42:18;14.40;99.90
13682;DHT22;6913;49.892;7.936;2022-10-16T01:44:46;14.40;99.90
13682;DHT22;6913;49.892;7.936;2022-10-16T01:47:14;14.40;99.90
13682;DHT22;6913;49.892;7.936;2022-10-16T01:49:43;14.50;99.90
13682;DHT22;6913;49.892;7.936;2022-10-16T01:52:13;14.80;99.90
13682;DHT22;6913;49.892;7.936;2022-10-16T01:54:45;14.50;99.90
13682;DHT22;6913;49.892;7.936;2022-10-16T01:57:15;14.50;99.90
13682;DHT22;6913;49.892;7.936;2022-10-16T01:59:44;14.60;99.90
13682;DHT22;6913;49.892;7.936;2022-10-16T02:02:12;14.60;99.90
13682;DHT22;6913;49.892;7.936;2022-10-16T02:04:45;14.60;99.90
13682;DHT22;6913;49.892;7.936;2022-10-16T02:07:13;14.70;99.90
13682;DHT22;6913;49.892;7.936;2022-10-16T02:09:40;14.60;99.90
13682;DHT22;6913;49.892;7.936;2022-10-16T02:12:12;14.50;99.90
13682;DHT22;6913;49.892;7.936;2022-10-16T02:14:41;14.60;99.90
13682;DHT22;6913;49.892;7.936;2022-10-16T02:17:13;14.60;99.90
13682;DHT22;6913;49.892;7.936;2022-10-16T02:19:41;14.30;99.90
13682;DHT22;6913;49.892;7.936;2022-10-16T02:22:12;14.70;99.90
13682;DHT22;6913;49.892;7.936;2022-10-16T02:24:48;14.70;99.90
13682;DHT22;6913;49.892;7.936;2022-10-16T02:27:22;14.60;99.90
13682;DHT22;6913;49.892;7.936;2022-10-16T02:29:55;14.60;99.90
13682;DHT22;6913;49.892;7.936;2022-10-16T02:32:30;14.50;99.90
13682;DHT22;6913;49.892;7.936;2022-10-16T02:34:59;14.10;99.90
13682;DHT22;6913;49.892;7.936;2022-10-16T02:37:27;13.90;99.90
13682;DHT22;6913;49.892;7.936;2022-10-16T02:39:55;14.00;99.90
13682;DHT22;6913;49.892;7.936;2022-10-16T02:42:28;14.10;99.90
13682;DHT22;6913;49.892;7.936;2022-10-16T02:44:57;14.20;99.90
13682;DHT22;6913;49.892;7.936;2022-10-16T02:47:24;14.30;99.90
13682;DHT22;6913;49.892;7.936;2022-10-16T02:49:51;14.10;99.90
13682;DHT22;6913;49.892;7.936;2022-10-16T02:52:18;14.20;99.90
13682;DHT22;6913;49.892;7.936;2022-10-16T02:54:45;14.30;99.90
13682;DHT22;6913;49.892;7.936;2022-10-16T02:57:11;14.30;99.90
13682;DHT22;6913;49.892;7.936;2022-10-16T02:59:38;14.10;99.90
13682;DHT22;6913;49.892;7.936;2022-10-16T03:02:06;14.20;99.90
13682;DHT22;6913;49.892;7.936;2022-10-16T03:04:33;14.30;99.90
13682;DHT22;6913;49.892;7.936;2022-10-16T03:07:00;14.30;99.90
13682;DHT22;6913;49.892;7.936;2022-10-16T03:09:27;14.50;99.90
13682;DHT22;6913;49.892;7.936;2022-10-16T03:11:53;14.30;99.90
13682;DHT22;6913;49.892;7.936;2022-10-16T03:14:20;14.20;99.90
13682;DHT22;6913;49.892;7.936;2022-10-16T03:16:47;14.20;99.90
13682;DHT22;6913;49.892;7.936;2022-10-16T03:19:16;14.30;99.90
13682;DHT22;6913;49.892;7.936;2022-10-16T03:21:43;14.40;99.90
13682;DHT22;6913;49.892;7.936;2022-10-16T03:24:09;14.40;99.90
13682;DHT22;6913;49.892;7.936;2022-10-16T03:26:36;14.40;99.90
13682;DHT22;6913;49.892;7.936;2022-10-16T03:29:03;14.40;99.90
13682;DHT22;6913;49.892;7.936;2022-10-16T03:31:30;14.50;99.90
13682;DHT22;6913;49.892;7.936;2022-10-16T03:33:57;14.50;99.90
13682;DHT22;6913;49.892;7.936;2022-10-16T03:36:25;14.60;99.90
13682;DHT22;6913;49.892;7.936;2022-10-16T03:38:52;14.60;99.90
13682;DHT22;6913;49.892;7.936;2022-10-16T03:41:19;14.60;99.90
13682;DHT22;6913;49.892;7.936;2022-10-16T03:43:46;14.60;99.90
13682;DHT22;6913;49.892;7.936;2022-10-16T03:46:13;14.60;99.90
13682;DHT22;6913;49.892;7.936;2022-10-16T03:48:39;14.60;99.90
13682;DHT22;6913;49.892;7.936;2022-10-16T03:51:06;14.70;99.90
13682;DHT22;6913;49.892;7.936;2022-10-16T03:53:34;14.70;99.90
13682;DHT22;6913;49.892;7.936;2022-10-16T03:56:01;14.70;99.90
13682;DHT22;6913;49.892;7.936;2022-10-16T03:58:28;14.70;99.90
13682;DHT22;6913;49.892;7.936;2022-10-16T04:00:55;15.00;99.90
13682;DHT22;6913;49.892;7.936;2022-10-16T04:03:22;14.70;99.90
13682;DHT22;6913;49.892;7.936;2022-10-16T04:05:49;14.50;99.90
13682;DHT22;6913;49.892;7.936;2022-10-16T04:08:16;14.40;99.90
13682;DHT22;6913;49.892;7.936;2022-10-16T04:10:45;14.50;99.90
13682;DHT22;6913;49.892;7.936;2022-10-16T04:13:12;14.50;99.90
13682;DHT22;6913;49.892;7.936;2022-10-16T04:15:39;15.30;99.90
13682;DHT22;6913;49.892;7.936;2022-10-16T04:18:05;14.50;99.90
13682;DHT22;6913;49.892;7.936;2022-10-16T04:20:33;14.60;99.90
13682;DHT22;6913;49.892;7.936;2022-10-16T04:23:00;14.60;99.90
13682;DHT22;6913;49.892;7.936;2022-10-16T04:25:27;14.70;99.90
13682;DHT22;6913;49.892;7.936;2022-10-16T04:27:55;14.70;99.90
13682;DHT22;6913;49.892;7.936;2022-10-16T04:30:23;14.70;99.90
13682;DHT22;6913;49.892;7.936;2022-10-16T04:32:50;15.00;99.90
13682;DHT22;6913;49.892;7.936;2022-10-16T04:35:17;14.60;99.90
13682;DHT22;6913;49.892;7.936;2022-10-16T04:37:45;14.60;99.90
13682;DHT22;6913;49.892;7.936;2022-10-16T04:40:12;14.70;99.90
13682;DHT22;6913;49.892;7.936;2022-10-16T04:42:38;14.50;99.90
13682;DHT22;6913;49.892;7.936;2022-10-16T04:45:08;14.50;99.90
13682;DHT22;6913;49.892;7.936;2022-10-16T04:47:35;14.50;99.90
13682;DHT22;6913;49.892;7.936;2022-10-16T04:50:02;14.60;99.90
13682;DHT22;6913;49.892;7.936;2022-10-16T04:52:29;14.60;99.90
13682;DHT22;6913;49.892;7.936;2022-10-16T04:54:57;14.50;99.90
13682;DHT22;6913;49.892;7.936;2022-10-16T04:57:27;14.60;99.90
13682;DHT22;6913;49.892;7.936;2022-10-16T04:59:53;14.60;99.90
13682;DHT22;6913;49.892;7.936;2022-10-16T05:02:22;14.50;99.90
13682;DHT22;6913;49.892;7.936;2022-10-16T05:04:48;14.60;99.90
13682;DHT22;6913;49.892;7.936;2022-10-16T05:07:15;14.30;99.90
13682;DHT22;6913;49.892;7.936;2022-10-16T05:09:42;14.60;99.90
13682;DHT22;6913;49.892;7.936;2022-10-16T05:12:09;14.40;99.90
13682;DHT22;6913;49.892;7.936;2022-10-16T05:14:35;14.40;99.90
13682;DHT22;6913;49.892;7.936;2022-10-16T05:17:02;14.40;99.90
13682;DHT22;6913;49.892;7.936;2022-10-16T05:19:30;14.40;99.90
13682;DHT22;6913;49.892;7.936;2022-10-16T05:21:57;14.50;99.90
13682;DHT22;6913;49.892;7.936;2022-10-16T05:24:24;14.50;99.90
13682;DHT22;6913;49.892;7.936;2022-10-16T05:26:51;14.50;99.90
13682;DHT22;6913;49.892;7.936;2022-10-16T05:29:18;14.60;99.90
13682;DHT22;6913;49.892;7.936;2022-10-16T05:31:45;14.60;99.90
13682;DHT22;6913;49.892;7.936;2022-10-16T05:34:12;14.60;99.90
13682;DHT22;6913;49.892;7.936;2022-10-16T05:36:40;14.60;99.90
13682;DHT22;6913;49.892;7.936;2022-10-16T05:39:07;14.70;99.90
13682;DHT22;6913;49.892;7.936;2022-10-16T05:41:34;14.70;99.90
13682;DHT22;6913;49.892;7.936;2022-10-16T05:44:04;14.60;99.90
13682;DHT22;6913;49.892;7.936;2022-10-16T05:46:31;14.60;99.90
13682;DHT22;6913;49.892;7.936;2022-10-16T05:48:58;14.70;99.90
13682;DHT22;6913;49.892;7.936;2022-10-16T05:51:24;14.60;99.90
13682;DHT22;6913;49.892;7.936;2022-10-16T05:53:53;14.60;99.90
13682;DHT22;6913;49.892;7.936;2022-10-16T05:56:19;14.60;99.90
13682;DHT22;6913;49.892;7.936;2022-10-16T05:58:46;14.70;99.90
13682;DHT22;6913;49.892;7.936;2022-10-16T06:01:15;14.70;99.90
13682;DHT22;6913;49.892;7.936;2022-10-16T06:03:42;14.60;99.90
13682;DHT22;6913;49.892;7.936;2022-10-16T06:06:11;14.60;99.90
13682;DHT22;6913;49.892;7.936;2022-10-16T06:08:39;14.40;99.90
13682;DHT22;6913;49.892;7.936;2022-10-16T06:11:10;14.70;99.90
13682;DHT22;6913;49.892;7.936;2022-10-16T06:13:37;14.50;99.90
13682;DHT22;6913;49.892;7.936;2022-10-16T06:16:08;14.30;99.90
13682;DHT22;6913;49.892;7.936;2022-10-16T06:18:34;14.30;99.90
13682;DHT22;6913;49.892;7.936;2022-10-16T06:21:07;14.40;99.90
13682;DHT22;6913;49.892;7.936;2022-10-16T06:23:34;14.50;99.90
13682;DHT22;6913;49.892;7.936;2022-10-16T06:26:06;14.70;99.90
13682;DHT22;6913;49.892;7.936;2022-10-16T06:28:33;14.40;99.90
13682;DHT22;6913;49.892;7.936;2022-10-16T06:31:00;14.50;99.90
13682;DHT22;6913;49.892;7.936;2022-10-16T06:33:27;14.50;99.90
13682;DHT22;6913;49.892;7.936;2022-10-16T06:36:00;14.60;99.90
13682;DHT22;6913;49.892;7.936;2022-10-16T06:38:27;14.60;99.90
13682;DHT22;6913;49.892;7.936;2022-10-16T06:40:54;15.00;99.90
13682;DHT22;6913;49.892;7.936;2022-10-16T06:43:22;15.00;99.90
13682;DHT22;6913;49.892;7.936;2022-10-16T06:45:51;14.80;99.90
13682;DHT22;6913;49.892;7.936;2022-10-16T06:48:18;14.70;99.90
13682;DHT22;6913;49.892;7.936;2022-10-16T06:50:55;14.70;99.90
13682;DHT22;6913;49.892;7.936;2022-10-16T06:53:22;14.80;99.90
13682;DHT22;6913;49.892;7.936;2022-10-16T06:55:48;14.80;99.90
13682;DHT22;6913;49.892;7.936;2022-10-16T06:58:15;14.50;99.90
13682;DHT22;6913;49.892;7.936;2022-10-16T07:00:43;14.60;99.90
13682;DHT22;6913;49.892;7.936;2022-10-16T07:03:10;14.80;99.90
13682;DHT22;6913;49.892;7.936;2022-10-16T07:05:37;14.70;99.90
13682;DHT22;6913;49.892;7.936;2022-10-16T07:08:05;14.80;99.90
13682;DHT22;6913;49.892;7.936;2022-10-16T07:10:31;14.80;99.90
13682;DHT22;6913;49.892;7.936;2022-10-16T07:12:58;14.90;99.90
13682;DHT22;6913;49.892;7.936;2022-10-16T07:15:25;14.90;99.90
13682;DHT22;6913;49.892;7.936;2022-10-16T07:17:53;14.90;99.90
13682;DHT22;6913;49.892;7.936;2022-10-16T07:20:20;14.90;99.90
13682;DHT22;6913;49.892;7.936;2022-10-16T07:22:47;14.90;99.90
13682;DHT22;6913;49.892;7.936;2022-10-16T07:25:14;15.00;99.90
13682;DHT22;6913;49.892;7.936;2022-10-16T07:27:40;15.00;99.90
13682;DHT22;6913;49.892;7.936;2022-10-16T07:30:08;15.00;99.90
13682;DHT22;6913;49.892;7.936;2022-10-16T07:32:35;15.00;99.90
13682;DHT22;6913;49.892;7.936;2022-10-16T07:35:04;15.00;99.90
13682;DHT22;6913;49.892;7.936;2022-10-16T07:37:30;15.10;99.90
13682;DHT22;6913;49.892;7.936;2022-10-16T07:39:57;15.10;99.90
13682;DHT22;6913;49.892;7.936;2022-10-16T07:42:24;15.10;99.90
13682;DHT22;6913;49.892;7.936;2022-10-16T07:44:51;15.10;99.90
13682;DHT22;6913;49.892;7.936;2022-10-16T07:47:17;15.10;99.90
13682;DHT22;6913;49.892;7.936;2022-10-16T07:49:44;15.10;99.90
13682;DHT22;6913;49.892;7.936;2022-10-16T07:52:12;15.10;99.90
13682;DHT22;6913;49.892;7.936;2022-10-16T07:54:39;15.20;99.90
13682;DHT22;6913;49.892;7.936;2022-10-16T07:57:06;15.40;99.90
13682;DHT22;6913;49.892;7.936;2022-10-16T07:59:33;15.30;99.90
13682;DHT22;6913;49.892;7.936;2022-10-16T08:01:59;15.40;99.90
13682;DHT22;6913;49.892;7.936;2022-10-16T08:04:26;15.50;99.90
13682;DHT22;6913;49.892;7.936;2022-10-16T08:06:53;15.50;99.90
13682;DHT22;6913;49.892;7.936;2022-10-16T08:09:22;15.50;99.90
13682;DHT22;6913;49.892;7.936;2022-10-16T08:11:48;15.60;99.90
13682;DHT22;6913;49.892;7.936;2022-10-16T08:14:15;15.70;99.90
13682;DHT22;6913;49.892;7.936;2022-10-16T08:16:42;15.80;99.90
13682;DHT22;6913;49.892;7.936;2022-10-16T08:19:09;15.90;99.90
13682;DHT22;6913;49.892;7.936;2022-10-16T08:21:35;15.90;99.90
13682;DHT22;6913;49.892;7.936;2022-10-16T08:24:02;15.90;99.90
13682;DHT22;6913;49.892;7.936;2022-10-16T08:26:31;16.10;99.90
13682;DHT22;6913;49.892;7.936;2022-10-16T08:28:57;16.30;99.90
13682;DHT22;6913;49.892;7.936;2022-10-16T08:31:24;16.00;99.90
13682;DHT22;6913;49.892;7.936;2022-10-16T08:33:52;16.10;99.90
13682;DHT22;6913;49.892;7.936;2022-10-16T08:36:19;16.10;99.90
13682;DHT22;6913;49.892;7.936;2022-10-16T08:38:48;16.10;99.90
13682;DHT22;6913;49.892;7.936;2022-10-16T08:41:27;16.10;99.90
13682;DHT22;6913;49.892;7.936;2022-10-16T08:44:15;16.20;99.90
13682;DHT22;6913;49.892;7.936;2022-10-16T08:46:52;16.00;99.90
13682;DHT22;6913;49.892;7.936;2022-10-16T08:49:23;15.90;99.90
13682;DHT22;6913;49.892;7.936;2022-10-16T08:51:51;15.90;99.90
13682;DHT22;6913;49.892;7.936;2022-10-16T08:54:26;15.90;99.90
13682;DHT22;6913;49.892;7.936;2022-10-16T08:56:55;16.10;99.90
13682;DHT22;6913;49.892;7.936;2022-10-16T08:59:24;15.60;99.90
13682;DHT22;6913;49.892;7.936;2022-10-16T09:01:51;15.90;99.90
13682;DHT22;6913;49.892;7.936;2022-10-16T09:04:56;15.80;99.90
13682;DHT22;6913;49.892;7.936;2022-10-16T09:07:31;15.80;99.90
13682;DHT22;6913;49.892;7.936;2022-10-16T09:10:15;15.90;99.90
13682;DHT22;6913;49.892;7.936;2022-10-16T09:12:51;16.10;99.90
13682;DHT22;6913;49.892;7.936;2022-10-16T09:15:27;16.20;99.90
13682;DHT22;6913;49.892;7.936;2022-10-16T09:18:00;16.30;99.90
13682;DHT22;6913;49.892;7.936;2022-10-16T09:20:34;16.40;99.90
13682;DHT22;6913;49.892;7.936;2022-10-16T09:23:13;16.20;99.90
13682;DHT22;6913;49.892;7.936;2022-10-16T09:25:44;16.20;99.90
13682;DHT22;6913;49.892;7.936;2022-10-16T09:28:13;16.70;99.90
13682;DHT22;6913;49.892;7.936;2022-10-16T09:30:41;17.50;99.90
13682;DHT22;6913;49.892;7.936;2022-10-16T09:33:10;16.40;99.90
13682;DHT22;6913;49.892;7.936;2022-10-16T09:35:39;16.70;99.90
13682;DHT22;6913;49.892;7.936;2022-10-16T09:38:07;16.70;99.90
13682;DHT22;6913;49.892;7.936;2022-10-16T09:40:35;16.70;99.90
13682;DHT22;6913;49.892;7.936;2022-10-16T09:43:18;17.00;99.90
13682;DHT22;6913;49.892;7.936;2022-10-16T09:45:58;17.50;99.90
13682;DHT22;6913;49.892;7.936;2022-10-16T09:48:28;17.80;99.90
13682;DHT22;6913;49.892;7.936;2022-10-16T09:50:59;17.80;99.90
13682;DHT22;6913;49.892;7.936;2022-10-16T09:53:39;19.00;99.90
13682;DHT22;6913;49.892;7.936;2022-10-16T09:56:06;18.80;99.90
13682;DHT22;6913;49.892;7.936;2022-10-16T09:58:33;18.90;99.90
13682;DHT22;6913;49.892;7.936;2022-10-16T10:01:01;19.60;99.90
13682;DHT22;6913;49.892;7.936;2022-10-16T10:03:37;19.70;99.90
13682;DHT22;6913;49.892;7.936;2022-10-16T10:06:15;19.40;99.90
13682;DHT22;6913;49.892;7.936;2022-10-16T10:09:04;19.30;99.90
13682;DHT22;6913;49.892;7.936;2022-10-16T10:11:48;19.70;99.90
13682;DHT22;6913;49.892;7.936;2022-10-16T10:14:24;19.10;99.90
13682;DHT22;6913;49.892;7.936;2022-10-16T10:17:08;19.50;99.90
13682;DHT22;6913;49.892;7.936;2022-10-16T10:19:46;19.60;99.90
13682;DHT22;6913;49.892;7.936;2022-10-16T10:22:17;19.90;99.90
13682;DHT22;6913;49.892;7.936;2022-10-16T10:24:53;19.50;99.90
13682;DHT22;6913;49.892;7.936;2022-10-16T10:27:21;19.20;99.90
13682;DHT22;6913;49.892;7.936;2022-10-16T10:29:53;19.00;99.90
13682;DHT22;6913;49.892;7.936;2022-10-16T10:32:31;19.20;99.90
13682;DHT22;6913;49.892;7.936;2022-10-16T10:35:07;19.30;99.90
13682;DHT22;6913;49.892;7.936;2022-10-16T10:37:57;19.00;99.90
13682;DHT22;6913;49.892;7.936;2022-10-16T10:40:39;19.20;99.90
13682;DHT22;6913;49.892;7.936;2022-10-16T10:43:12;18.80;99.90
13682;DHT22;6913;49.892;7.936;2022-10-16T10:45:43;19.20;99.90
13682;DHT22;6913;49.892;7.936;2022-10-16T10:48:29;19.60;99.90
13682;DHT22;6913;49.892;7.936;2022-10-16T10:51:04;19.40;99.90
13682;DHT22;6913;49.892;7.936;2022-10-16T10:53:40;19.20;99.90
13682;DHT22;6913;49.892;7.936;2022-10-16T10:56:18;19.10;99.90
13682;DHT22;6913;49.892;7.936;2022-10-16T10:59:02;18.70;99.90
13682;DHT22;6913;49.892;7.936;2022-10-16T11:01:39;19.40;99.90
13682;DHT22;6913;49.892;7.936;2022-10-16T11:04:31;19.20;99.90
13682;DHT22;6913;49.892;7.936;2022-10-16T11:07:02;19.10;99.90
13682;DHT22;6913;49.892;7.936;2022-10-16T11:09:33;19.30;99.90
13682;DHT22;6913;49.892;7.936;2022-10-16T11:12:07;19.00;99.90
13682;DHT22;6913;49.892;7.936;2022-10-16T11:14:42;18.90;99.90
13682;DHT22;6913;49.892;7.936;2022-10-16T11:17:14;19.00;99.90
13682;DHT22;6913;49.892;7.936;2022-10-16T11:19:48;18.70;99.90
13682;DHT22;6913;49.892;7.936;2022-10-16T11:22:19;19.00;99.90
13682;DHT22;6913;49.892;7.936;2022-10-16T11:24:49;19.10;99.90
13682;DHT22;6913;49.892;7.936;2022-10-16T11:27:23;19.00;99.90
13682;DHT22;6913;49.892;7.936;2022-10-16T11:29:56;19.40;99.90
13682;DHT22;6913;49.892;7.936;2022-10-16T11:32:30;19.20;99.90
13682;DHT22;6913;49.892;7.936;2022-10-16T11:35:06;19.80;99.90
13682;DHT22;6913;49.892;7.936;2022-10-16T11:37:41;19.40;99.90
13682;DHT22;6913;49.892;7.936;2022-10-16T11:40:19;20.20;99.90
13682;DHT22;6913;49.892;7.936;2022-10-16T11:42:51;20.20;99.90
13682;DHT22;6913;49.892;7.936;2022-10-16T11:45:28;20.50;99.90
13682;DHT22;6913;49.892;7.936;2022-10-16T11:48:01;20.50;99.90
13682;DHT22;6913;49.892;7.936;2022-10-16T11:50:35;20.40;99.90
13682;DHT22;6913;49.892;7.936;2022-10-16T11:53:11;20.80;99.90
13682;DHT22;6913;49.892;7.936;2022-10-16T11:55:42;20.70;99.90
13682;DHT22;6913;49.892;7.936;2022-10-16T11:58:16;20.60;99.90
13682;DHT22;6913;49.892;7.936;2022-10-16T12:00:51;20.90;99.90
13682;DHT22;6913;49.892;7.936;2022-10-16T12:03:22;20.20;99.90
13682;DHT22;6913;49.892;7.936;2022-10-16T12:08:49;19.80;99.90
13682;DHT22;6913;49.892;7.936;2022-10-16T12:11:31;20.50;99.90
13682;DHT22;6913;49.892;7.936;2022-10-16T12:14:07;20.50;99.90
13682;DHT22;6913;49.892;7.936;2022-10-16T12:16:37;20.30;99.90
13682;DHT22;6913;49.892;7.936;2022-10-16T12:19:13;20.50;99.90
13682;DHT22;6913;49.892;7.936;2022-10-16T12:21:42;20.50;99.90
13682;DHT22;6913;49.892;7.936;2022-10-16T12:24:22;20.70;99.90
13682;DHT22;6913;49.892;7.936;2022-10-16T12:26:53;20.60;99.90
13682;DHT22;6913;49.892;7.936;2022-10-16T12:29:32;20.70;99.90
13682;DHT22;6913;49.892;7.936;2022-10-16T12:32:00;20.80;99.90
13682;DHT22;6913;49.892;7.936;2022-10-16T12:34:29;20.80;99.90
13682;DHT22;6913;49.892;7.936;2022-10-16T12:37:11;20.80;99.90
13682;DHT22;6913;49.892;7.936;2022-10-16T12:39:38;21.00;99.90
13682;DHT22;6913;49.892;7.936;2022-10-16T12:42:19;21.00;99.90
13682;DHT22;6913;49.892;7.936;2022-10-16T12:44:46;20.90;99.90
13682;DHT22;6913;49.892;7.936;2022-10-16T12:47:20;21.00;99.90
13682;DHT22;6913;49.892;7.936;2022-10-16T12:49:49;20.90;99.90
13682;DHT22;6913;49.892;7.936;2022-10-16T12:52:26;21.20;99.90
13682;DHT22;6913;49.892;7.936;2022-10-16T12:54:56;21.00;99.90
13682;DHT22;6913;49.892;7.936;2022-10-16T12:57:35;21.20;99.90
13682;DHT22;6913;49.892;7.936;2022-10-16T13:00:09;21.10;99.90
13682;DHT22;6913;49.892;7.936;2022-10-16T13:02:49;21.00;99.90
13682;DHT22;6913;49.892;7.936;2022-10-16T13:05:32;20.80;99.90
13682;DHT22;6913;49.892;7.936;2022-10-16T13:08:14;20.80;99.90
13682;DHT22;6913;49.892;7.936;2022-10-16T13:10:51;21.00;99.90
13682;DHT22;6913;49.892;7.936;2022-10-16T13:13:39;21.00;99.90
13682;DHT22;6913;49.892;7.936;2022-10-16T13:16:15;21.20;99.90
13682;DHT22;6913;49.892;7.936;2022-10-16T13:18:51;21.30;99.90
13682;DHT22;6913;49.892;7.936;2022-10-16T13:21:33;21.20;99.90
13682;DHT22;6913;49.892;7.936;2022-10-16T13:24:13;21.10;99.90
13682;DHT22;6913;49.892;7.936;2022-10-16T13:26:49;21.30;99.90
13682;DHT22;6913;49.892;7.936;2022-10-16T13:29:19;21.10;99.90
13682;DHT22;6913;49.892;7.936;2022-10-16T13:31:46;20.90;99.90
13682;DHT22;6913;49.892;7.936;2022-10-16T13:34:15;20.70;99.90
13682;DHT22;6913;49.892;7.936;2022-10-16T13:36:45;20.70;99.90
13682;DHT22;6913;49.892;7.936;2022-10-16T13:39:20;20.40;99.90
13682;DHT22;6913;49.892;7.936;2022-10-16T13:41:58;20.00;99.90
13682;DHT22;6913;49.892;7.936;2022-10-16T13:44:27;20.60;99.90
13682;DHT22;6913;49.892;7.936;2022-10-16T13:47:00;20.60;99.90
13682;DHT22;6913;49.892;7.936;2022-10-16T13:49:28;20.70;99.90
13682;DHT22;6913;49.892;7.936;2022-10-16T13:51:55;21.00;99.90
13682;DHT22;6913;49.892;7.936;2022-10-16T13:54:24;21.00;99.90
13682;DHT22;6913;49.892;7.936;2022-10-16T13:56:52;20.90;99.90
13682;DHT22;6913;49.892;7.936;2022-10-16T13:59:26;20.70;99.90
13682;DHT22;6913;49.892;7.936;2022-10-16T14:01:56;20.80;99.90
13682;DHT22;6913;49.892;7.936;2022-10-16T14:04:24;20.80;99.90
13682;DHT22;6913;49.892;7.936;2022-10-16T14:06:52;20.90;99.90
13682;DHT22;6913;49.892;7.936;2022-10-16T14:09:24;21.00;99.90
13682;DHT22;6913;49.892;7.936;2022-10-16T14:11:54;20.70;99.90
13682;DHT22;6913;49.892;7.936;2022-10-16T14:14:22;21.00;99.90
13682;DHT22;6913;49.892;7.936;2022-10-16T14:16:49;20.90;99.90
13682;DHT22;6913;49.892;7.936;2022-10-16T14:19:20;21.00;99.90
13682;DHT22;6913;49.892;7.936;2022-10-16T14:21:48;21.30;99.90
13682;DHT22;6913;49.892;7.936;2022-10-16T14:24:27;21.50;99.90
13682;DHT22;6913;49.892;7.936;2022-10-16T14:26:57;21.20;99.90
13682;DHT22;6913;49.892;7.936;2022-10-16T14:29:25;21.10;99.90
13682;DHT22;6913;49.892;7.936;2022-10-16T14:31:57;21.20;99.90
13682;DHT22;6913;49.892;7.936;2022-10-16T14:34:27;21.30;99.90
13682;DHT22;6913;49.892;7.936;2022-10-16T14:36:54;21.20;99.90
13682;DHT22;6913;49.892;7.936;2022-10-16T14:39:22;21.30;99.90
13682;DHT22;6913;49.892;7.936;2022-10-16T14:41:55;21.30;99.90
13682;DHT22;6913;49.892;7.936;2022-10-16T14:44:27;21.60;99.90
13682;DHT22;6913;49.892;7.936;2022-10-16T14:46:55;21.50;99.90
13682;DHT22;6913;49.892;7.936;2022-10-16T14:49:23;21.30;99.90
13682;DHT22;6913;49.892;7.936;2022-10-16T14:51:50;21.10;99.90
13682;DHT22;6913;49.892;7.936;2022-10-16T14:54:18;21.10;99.90
13682;DHT22;6913;49.892;7.936;2022-10-16T14:56:47;21.10;99.90
13682;DHT22;6913;49.892;7.936;2022-10-16T14:59:18;21.10;99.90
13682;DHT22;6913;49.892;7.936;2022-10-16T15:01:46;20.90;99.90
13682;DHT22;6913;49.892;7.936;2022-10-16T15:04:13;20.90;99.90
13682;DHT22;6913;49.892;7.936;2022-10-16T15:06:41;20.80;99.90
13682;DHT22;6913;49.892;7.936;2022-10-16T15:09:08;21.10;99.90
13682;DHT22;6913;49.892;7.936;2022-10-16T15:11:35;21.10;99.90
13682;DHT22;6913;49.892;7.936;2022-10-16T15:14:03;21.00;99.90
13682;DHT22;6913;49.892;7.936;2022-10-16T15:16:31;20.90;99.90
13682;DHT22;6913;49.892;7.936;2022-10-16T15:18:58;20.90;99.90
13682;DHT22;6913;49.892;7.936;2022-10-16T15:21:27;20.90;99.90
13682;DHT22;6913;49.892;7.936;2022-10-16T15:23:54;20.90;99.90
13682;DHT22;6913;49.892;7.936;2022-10-16T15:26:22;20.90;99.90
13682;DHT22;6913;49.892;7.936;2022-10-16T15:28:49;20.90;99.90
13682;DHT22;6913;49.892;7.936;2022-10-16T15:31:16;20.90;99.90
13682;DHT22;6913;49.892;7.936;2022-10-16T15:33:44;21.10;99.90
13682;DHT22;6913;49.892;7.936;2022-10-16T15:36:16;20.90;99.90
13682;DHT22;6913;49.892;7.936;2022-10-16T15:38:43;20.90;99.90
13682;DHT22;6913;49.892;7.936;2022-10-16T15:41:10;20.90;99.90
13682;DHT22;6913;49.892;7.936;2022-10-16T15:43:37;20.90;99.90
13682;DHT22;6913;49.892;7.936;2022-10-16T15:46:06;20.90;99.90
13682;DHT22;6913;49.892;7.936;2022-10-16T15:48:34;20.70;99.90
13682;DHT22;6913;49.892;7.936;2022-10-16T15:51:05;20.60;99.90
13682;DHT22;6913;49.892;7.936;2022-10-16T15:53:32;20.50;99.90
13682;DHT22;6913;49.892;7.936;2022-10-16T15:56:01;20.70;99.90
13682;DHT22;6913;49.892;7.936;2022-10-16T15:58:28;20.30;99.90
13682;DHT22;6913;49.892;7.936;2022-10-16T16:00:55;20.40;99.90
13682;DHT22;6913;49.892;7.936;2022-10-16T16:03:22;20.50;99.90
13682;DHT22;6913;49.892;7.936;2022-10-16T16:05:49;20.30;99.90
13682;DHT22;6913;49.892;7.936;2022-10-16T16:08:17;20.30;99.90